This is the latest recevied weather packets stored in our database for station/object JO1YDG-13. If no packets are shown the sender has not sent any weather packets the latest 10 day(s).
| Time | Temp. | Humidity | Pressure | Rain* | Wind** | Luminosity | Snow |
|---|---|---|---|---|---|---|---|
| 1778113493 | 22.22° C | 55% | 986.1 hPa | 0 mm | - | - | - |
| 1778113194 | 22.22° C | 54% | 986.1 hPa | 0 mm | - | - | - |
| 1778112893 | 22.78° C | 54% | 986.2 hPa | 0 mm | - | - | - |
| 1778112593 | 22.22° C | 54% | 986.2 hPa | 0 mm | - | - | - |
| 1778112293 | 22.22° C | 54% | 986.2 hPa | 0 mm | - | - | - |
| 1778111993 | 21.67° C | 55% | 986.4 hPa | 0 mm | - | - | - |
| 1778111694 | 21.67° C | 55% | 986.4 hPa | 0 mm | - | - | - |
| 1778111394 | 21.11° C | 57% | 986.7 hPa | 0 mm | - | - | - |
| 1778111095 | 21.11° C | 57% | 986.7 hPa | 0 mm | - | - | - |
| 1778110794 | 20.56° C | 59% | 986.8 hPa | 0 mm | - | - | - |
| 1778110494 | 21.67° C | 56% | 986.9 hPa | 0 mm | - | - | - |
| 1778110194 | 20.56° C | 60% | 986.9 hPa | 0 mm | - | - | - |
| 1778109894 | 20° C | 61% | 987.2 hPa | 0 mm | - | - | - |
| 1778109594 | 20° C | 60% | 987.2 hPa | 0 mm | - | - | - |
| 1778109293 | 19.44° C | 61% | 987.4 hPa | 0 mm | - | - | - |
| 1778108993 | 19.44° C | 62% | 987.4 hPa | 0 mm | - | - | - |
| 1778108693 | 19.44° C | 64% | 987.4 hPa | 0 mm | - | - | - |
| 1778108393 | 19.44° C | 62% | 987.5 hPa | 0 mm | - | - | - |
| 1778108093 | 20° C | 62% | 987.5 hPa | 0 mm | - | - | - |
| 1778107794 | 18.89° C | 64% | 987.7 hPa | 0 mm | - | - | - |
| 1778107494 | 19.44° C | 63% | 987.7 hPa | 0 mm | - | - | - |
| 1778107194 | 18.33° C | 67% | 987.7 hPa | 0 mm | - | - | - |
| 1778106894 | 18.89° C | 66% | 987.8 hPa | 0 mm | - | - | - |
| 1778106594 | 18.33° C | 66% | 987.8 hPa | 0 mm | - | - | - |
| 1778106293 | 18.33° C | 67% | 987.9 hPa | 0 mm | - | - | - |
* Rain latest hour (hover to see other rain measurements)
** Current wind speed in m/s (hover to see current wind gust speed)